Time;durP1;ratioP1;P1;durP2;ratioP2;P2;SDS_P1;SDS_P2;PMS_P1;PMS_P2;Temp;Humidity;BMP_temperature;BMP_pressure;BME280_temperature;BME280_humidity;BME280_pressure;Samples;Min_cycle;Max_cycle;Signal;HPM_P1;HPM_P2
2022/04/28 00:00:27;;;;;;;14.47;12.10;;;;;;;;;;5010673;28;20206;-63
2022/04/28 00:02:55;;;;;;;15.10;12.30;;;;;;;;;;5013381;28;20215;-63
2022/04/28 00:05:24;;;;;;;13.07;11.67;;;;;;;;;;5013789;28;20195;-65
2022/04/28 00:07:52;;;;;;;14.73;12.80;;;;;;;;;;5005041;28;20261;-63
2022/04/28 00:10:19;;;;;;;14.20;12.70;;;;;;;;;;5013319;28;20568;-62
2022/04/28 00:12:47;;;;;;;16.80;13.67;;;;;;;;;;5016939;28;20202;-64
2022/04/28 00:15:14;;;;;;;14.53;12.60;;;;;;;;;;5012233;28;20246;-63
2022/04/28 00:17:41;;;;;;;17.20;13.53;;;;;;;;;;5017625;28;20693;-62
2022/04/28 00:20:09;;;;;;;15.60;13.80;;;;;;;;;;5015152;28;20253;-63
2022/04/28 00:22:36;;;;;;;16.00;13.43;;;;;;;;;;5016712;28;20693;-63
2022/04/28 00:25:04;;;;;;;16.17;13.90;;;;;;;;;;5013525;28;20495;-64
2022/04/28 00:27:33;;;;;;;16.53;13.73;;;;;;;;;;5014450;28;20702;-64
2022/04/28 00:30:00;;;;;;;18.33;14.40;;;;;;;;;;5007274;28;20211;-65
2022/04/28 00:32:29;;;;;;;17.17;13.10;;;;;;;;;;5012069;28;20207;-65
2022/04/28 00:34:57;;;;;;;16.90;14.13;;;;;;;;;;5013353;28;20207;-64
2022/04/28 00:37:24;;;;;;;17.43;14.73;;;;;;;;;;5017078;28;20235;-64
2022/04/28 00:39:52;;;;;;;17.13;13.80;;;;;;;;;;5009522;28;20208;-61
2022/04/28 00:42:20;;;;;;;17.10;13.67;;;;;;;;;;5011859;28;20211;-63
2022/04/28 00:44:47;;;;;;;16.67;13.83;;;;;;;;;;5020381;28;20258;-62
2022/04/28 00:47:15;;;;;;;18.03;15.00;;;;;;;;;;5012341;28;20589;-63
2022/04/28 00:52:31;;;;;;;18.90;14.90;;;;;;;;;;5016080;28;20214;-61
2022/04/28 00:54:58;;;;;;;18.87;15.17;;;;;;;;;;5012340;28;20207;-65
2022/04/28 00:57:26;;;;;;;17.80;15.50;;;;;;;;;;5011501;28;20673;-62
2022/04/28 00:59:54;;;;;;;17.23;14.10;;;;;;;;;;5019447;28;20727;-64
2022/04/28 01:02:21;;;;;;;17.87;14.97;;;;;;;;;;5015484;28;20258;-63
2022/04/28 01:04:49;;;;;;;16.93;13.83;;;;;;;;;;5009607;28;20207;-63
2022/04/28 01:07:17;;;;;;;17.97;14.90;;;;;;;;;;5019633;28;20230;-63
2022/04/28 01:09:44;;;;;;;19.27;15.50;;;;;;;;;;5012523;28;20261;-62
2022/04/28 01:12:15;;;;;;;21.00;15.83;;;;;;;;;;5016480;28;20364;-62
2022/04/28 01:14:44;;;;;;;21.40;16.57;;;;;;;;;;5022821;28;20210;-62
2022/04/28 01:17:12;;;;;;;22.43;17.47;;;;;;;;;;5016134;28;20236;-64
2022/04/28 01:19:40;;;;;;;21.07;16.67;;;;;;;;;;5011120;28;20199;-63
2022/04/28 01:22:08;;;;;;;21.60;17.43;;;;;;;;;;5018141;28;20214;-64
2022/04/28 01:24:36;;;;;;;20.67;17.07;;;;;;;;;;5021982;28;20278;-64
2022/04/28 01:27:08;;;;;;;22.37;17.53;;;;;;;;;;5006617;28;20230;-63
2022/04/28 01:29:35;;;;;;;20.50;15.80;;;;;;;;;;5008274;28;20668;-64
2022/04/28 01:32:03;;;;;;;20.57;16.73;;;;;;;;;;5033125;28;20199;-64
2022/04/28 01:34:30;;;;;;;20.87;16.10;;;;;;;;;;5016518;28;20680;-63
2022/04/28 01:36:58;;;;;;;19.80;15.60;;;;;;;;;;5015456;28;21307;-62
2022/04/28 01:39:25;;;;;;;17.87;15.57;;;;;;;;;;5007259;28;20207;-63
2022/04/28 01:41:52;;;;;;;19.73;15.30;;;;;;;;;;5013491;28;20199;-61
2022/04/28 01:44:20;;;;;;;17.77;15.40;;;;;;;;;;5016675;28;20269;-65
2022/04/28 01:46:47;;;;;;;19.53;15.70;;;;;;;;;;5006350;28;20880;-65
2022/04/28 01:49:14;;;;;;;18.07;14.33;;;;;;;;;;5013309;28;20215;-65
2022/04/28 01:57:14;;;;;;;19.47;15.60;;;;;;;;;;5014738;28;20261;-62
2022/04/28 01:59:41;;;;;;;20.97;15.10;;;;;;;;;;5010722;28;20257;-63
2022/04/28 02:02:08;;;;;;;18.53;15.17;;;;;;;;;;5009826;28;20195;-63
2022/04/28 02:04:36;;;;;;;20.83;16.40;;;;;;;;;;5010842;28;20210;-63
2022/04/28 02:07:06;;;;;;;22.17;17.33;;;;;;;;;;5011788;28;20245;-64
2022/04/28 02:09:34;;;;;;;21.13;16.77;;;;;;;;;;5025876;28;20210;-62
2022/04/28 02:12:01;;;;;;;19.90;16.47;;;;;;;;;;5017502;28;20207;-65
2022/04/28 02:14:28;;;;;;;21.03;16.03;;;;;;;;;;5024103;28;20576;-64
2022/04/28 02:16:56;;;;;;;20.40;16.23;;;;;;;;;;5020008;28;20723;-64
2022/04/28 02:19:24;;;;;;;20.17;16.10;;;;;;;;;;5018030;28;20727;-65
2022/04/28 02:21:51;;;;;;;23.50;17.67;;;;;;;;;;5020054;28;20206;-62
2022/04/28 02:24:18;;;;;;;24.47;17.43;;;;;;;;;;5019011;28;20210;-63
2022/04/28 02:26:46;;;;;;;22.13;16.53;;;;;;;;;;5021147;28;20235;-67
2022/04/28 02:29:13;;;;;;;21.57;16.50;;;;;;;;;;5022259;28;20280;-63
2022/04/28 02:31:41;;;;;;;23.33;17.00;;;;;;;;;;5014168;28;20219;-64
2022/04/28 02:34:08;;;;;;;21.33;16.17;;;;;;;;;;5018160;28;20370;-64
2022/04/28 02:36:36;;;;;;;22.60;16.60;;;;;;;;;;5016242;28;20219;-63
2022/04/28 02:39:03;;;;;;;23.13;17.40;;;;;;;;;;5016767;28;20591;-62
2022/04/28 02:41:31;;;;;;;20.47;16.47;;;;;;;;;;5020371;28;20687;-64
2022/04/28 02:43:58;;;;;;;22.13;17.27;;;;;;;;;;5019647;28;20312;-64
2022/04/28 02:46:27;;;;;;;21.17;16.50;;;;;;;;;;5032786;28;20234;-64
2022/04/28 02:48:54;;;;;;;20.70;16.23;;;;;;;;;;5027288;28;20695;-64
2022/04/28 02:51:21;;;;;;;24.43;16.87;;;;;;;;;;5022537;28;20276;-63
2022/04/28 02:53:49;;;;;;;21.67;16.67;;;;;;;;;;5017526;28;20210;-63
2022/04/28 02:56:16;;;;;;;22.17;16.80;;;;;;;;;;5020942;28;20218;-64
2022/04/28 02:58:43;;;;;;;20.23;16.60;;;;;;;;;;5024713;28;20223;-64
2022/04/28 03:01:10;;;;;;;20.13;16.40;;;;;;;;;;5017540;28;20250;-63
2022/04/28 03:03:38;;;;;;;20.03;15.37;;;;;;;;;;5011766;28;20282;-63
2022/04/28 03:11:37;;;;;;;18.83;14.60;;;;;;;;;;5022396;28;20202;-62
2022/04/28 03:14:05;;;;;;;18.37;14.40;;;;;;;;;;5017502;28;21147;-64
2022/04/28 03:16:33;;;;;;;16.20;13.77;;;;;;;;;;5013399;28;20320;-64
2022/04/28 03:19:00;;;;;;;19.50;14.60;;;;;;;;;;5018461;28;20720;-63
2022/04/28 03:21:28;;;;;;;17.87;13.93;;;;;;;;;;5011947;28;20729;-64
2022/04/28 03:23:55;;;;;;;17.90;14.00;;;;;;;;;;5016214;28;20218;-64
2022/04/28 03:26:22;;;;;;;17.40;13.47;;;;;;;;;;5013431;28;20296;-62
2022/04/28 03:28:50;;;;;;;17.27;13.97;;;;;;;;;;5014673;28;20207;-63
2022/04/28 03:31:17;;;;;;;16.80;12.80;;;;;;;;;;5013760;28;20212;-64
2022/04/28 03:33:44;;;;;;;19.07;14.47;;;;;;;;;;5019290;28;20707;-64
2022/04/28 03:38:58;;;;;;;16.07;13.17;;;;;;;;;;5018325;28;20273;-63
2022/04/28 03:41:25;;;;;;;16.77;13.83;;;;;;;;;;5013866;28;20218;-63
2022/04/28 03:43:52;;;;;;;16.47;13.87;;;;;;;;;;5019029;28;20609;-64
2022/04/28 03:46:20;;;;;;;15.77;12.87;;;;;;;;;;5010884;28;20222;-63
2022/04/28 03:48:48;;;;;;;17.87;14.03;;;;;;;;;;5018829;28;20259;-61
2022/04/28 03:51:16;;;;;;;17.37;13.43;;;;;;;;;;5016178;28;20640;-64
2022/04/28 03:53:43;;;;;;;17.87;14.20;;;;;;;;;;5021662;28;20203;-64
2022/04/28 03:56:10;;;;;;;19.80;14.37;;;;;;;;;;5020960;28;20228;-63
2022/04/28 03:58:38;;;;;;;17.93;14.27;;;;;;;;;;5017741;28;20234;-64
2022/04/28 04:01:05;;;;;;;17.77;13.67;;;;;;;;;;5009818;28;20213;-63
2022/04/28 04:03:33;;;;;;;17.80;13.33;;;;;;;;;;5012694;28;20591;-63
2022/04/28 04:06:00;;;;;;;16.70;13.83;;;;;;;;;;5016766;28;20233;-61
2022/04/28 04:08:28;;;;;;;17.27;13.30;;;;;;;;;;5018740;28;22365;-64
2022/04/28 04:10:55;;;;;;;17.43;13.80;;;;;;;;;;5015295;28;20736;-64
2022/04/28 04:13:23;;;;;;;21.47;15.53;;;;;;;;;;5017168;28;20555;-63
2022/04/28 04:15:50;;;;;;;20.50;15.73;;;;;;;;;;5017705;28;20274;-63
2022/04/28 04:18:18;;;;;;;21.03;15.93;;;;;;;;;;5019791;28;20282;-62
2022/04/28 04:20:45;;;;;;;21.00;16.20;;;;;;;;;;5017197;28;20211;-64
2022/04/28 04:23:13;;;;;;;22.73;17.70;;;;;;;;;;5017481;28;20207;-64
2022/04/28 04:25:40;;;;;;;18.63;14.77;;;;;;;;;;5012712;28;21746;-62
2022/04/28 04:28:07;;;;;;;19.90;14.87;;;;;;;;;;5013059;28;20664;-64
2022/04/28 04:33:21;;;;;;;17.57;13.73;;;;;;;;;;5016535;28;20666;-62
2022/04/28 04:35:48;;;;;;;19.40;14.77;;;;;;;;;;5015570;28;20322;-63
2022/04/28 04:38:16;;;;;;;17.90;14.23;;;;;;;;;;5017908;28;20617;-64
2022/04/28 04:40:47;;;;;;;17.60;13.10;;;;;;;;;;5023163;28;20199;-64
2022/04/28 04:43:15;;;;;;;19.23;13.73;;;;;;;;;;5018602;28;20306;-64
2022/04/28 04:45:42;;;;;;;18.77;14.50;;;;;;;;;;5019960;28;20230;-64
2022/04/28 04:48:13;;;;;;;19.30;14.17;;;;;;;;;;5018620;28;20211;-64
2022/04/28 04:50:40;;;;;;;18.40;13.97;;;;;;;;;;5018867;28;20255;-62
2022/04/28 04:53:08;;;;;;;18.00;14.23;;;;;;;;;;5018252;28;20234;-64
2022/04/28 04:55:36;;;;;;;18.30;14.20;;;;;;;;;;5018495;28;20224;-64
2022/04/28 04:58:04;;;;;;;17.40;14.03;;;;;;;;;;5021469;28;20245;-64
2022/04/28 05:00:31;;;;;;;19.20;14.63;;;;;;;;;;5019229;28;20207;-64
2022/04/28 05:02:59;;;;;;;19.93;15.23;;;;;;;;;;5020329;28;20632;-64
2022/04/28 05:05:27;;;;;;;19.53;16.17;;;;;;;;;;5021750;28;20234;-64
2022/04/28 05:07:54;;;;;;;21.50;16.20;;;;;;;;;;5021597;28;20234;-63
2022/04/28 05:10:22;;;;;;;19.27;14.30;;;;;;;;;;5019994;28;20222;-65
2022/04/28 05:12:49;;;;;;;21.10;15.10;;;;;;;;;;5018205;28;20199;-66
2022/04/28 05:15:16;;;;;;;18.60;14.00;;;;;;;;;;5012372;28;20210;-65
2022/04/28 05:17:44;;;;;;;16.90;13.50;;;;;;;;;;5005646;28;20269;-63
2022/04/28 05:20:13;;;;;;;14.87;12.77;;;;;;;;;;5020892;28;20698;-62
2022/04/28 05:22:40;;;;;;;15.87;12.47;;;;;;;;;;5009719;28;20215;-64
2022/04/28 05:25:08;;;;;;;15.23;12.87;;;;;;;;;;5017454;28;20211;-65
2022/04/28 05:27:35;;;;;;;14.47;11.90;;;;;;;;;;5022296;28;20261;-63
2022/04/28 05:30:04;;;;;;;15.30;12.57;;;;;;;;;;5018506;28;20519;-63
2022/04/28 05:32:31;;;;;;;15.60;11.90;;;;;;;;;;5020537;28;20262;-64
2022/04/28 05:34:59;;;;;;;12.57;10.60;;;;;;;;;;5024028;28;20218;-64
2022/04/28 05:37:26;;;;;;;12.07;10.07;;;;;;;;;;5021727;28;20230;-64
2022/04/28 05:39:54;;;;;;;9.97;8.63;;;;;;;;;;5020371;28;20234;-63
2022/04/28 05:45:41;;;;;;;9.50;8.60;;;;;;;;;;5007942;28;20211;-63
2022/04/28 05:47:55;;;;;;;8.77;7.97;;;;;;;;;;5018716;28;20297;-64
2022/04/28 05:50:22;;;;;;;8.30;7.50;;;;;;;;;;5021513;28;20237;-65
2022/04/28 05:52:50;;;;;;;9.10;8.20;;;;;;;;;;5022840;28;20245;-65
2022/04/28 05:55:17;;;;;;;8.75;7.95;;;;;;;;;;5019212;28;20211;-64
2022/04/28 05:57:44;;;;;;;8.57;7.78;;;;;;;;;;5021072;28;20199;-64
2022/04/28 06:00:12;;;;;;;9.10;8.20;;;;;;;;;;5021291;28;20325;-64
2022/04/28 06:02:39;;;;;;;8.90;8.00;;;;;;;;;;5017618;28;20265;-65
2022/04/28 06:05:07;;;;;;;9.23;8.30;;;;;;;;;;5023477;28;20683;-64
2022/04/28 06:07:35;;;;;;;9.43;8.43;;;;;;;;;;5021389;28;20551;-64
2022/04/28 06:10:03;;;;;;;8.83;7.93;;;;;;;;;;5018052;28;20207;-64
2022/04/28 06:12:32;;;;;;;9.57;8.57;;;;;;;;;;5016101;28;20203;-64
2022/04/28 06:14:59;;;;;;;9.27;8.37;;;;;;;;;;5016870;28;20199;-64
2022/04/28 06:17:27;;;;;;;9.20;8.20;;;;;;;;;;5017223;28;20227;-63
2022/04/28 06:19:54;;;;;;;9.77;8.37;;;;;;;;;;5021772;28;20227;-64
2022/04/28 06:22:41;;;;;;;9.47;8.47;;;;;;;;;;5017282;28;20235;-64
2022/04/28 06:25:10;;;;;;;8.50;7.70;;;;;;;;;;5015241;28;21376;-64
2022/04/28 06:27:38;;;;;;;9.60;8.07;;;;;;;;;;5013294;28;20214;-64
2022/04/28 06:30:07;;;;;;;10.50;8.27;;;;;;;;;;5016618;28;20301;-64
2022/04/28 06:32:35;;;;;;;9.30;7.73;;;;;;;;;;5018051;28;20210;-65
2022/04/28 06:35:07;;;;;;;8.07;7.20;;;;;;;;;;5017359;28;20447;-63
2022/04/28 06:37:34;;;;;;;8.77;7.67;;;;;;;;;;5008743;28;20298;-64
2022/04/28 06:40:03;;;;;;;8.43;7.60;;;;;;;;;;5012039;28;20322;-64
2022/04/28 06:42:30;;;;;;;8.30;7.50;;;;;;;;;;5017480;28;20302;-64
2022/04/28 06:44:58;;;;;;;7.83;7.13;;;;;;;;;;5015817;28;20215;-65
2022/04/28 06:47:25;;;;;;;8.33;7.50;;;;;;;;;;5010314;28;20222;-64
2022/04/28 06:49:52;;;;;;;8.43;7.63;;;;;;;;;;5024954;28;20211;-64
2022/04/28 06:52:20;;;;;;;8.50;7.10;;;;;;;;;;5021700;28;20203;-64
2022/04/28 06:54:47;;;;;;;7.67;6.87;;;;;;;;;;5013886;28;20218;-64
2022/04/28 06:57:15;;;;;;;7.17;6.47;;;;;;;;;;5022225;28;20286;-64
2022/04/28 06:59:42;;;;;;;7.23;6.53;;;;;;;;;;5011286;28;20230;-64
2022/04/28 07:02:10;;;;;;;6.60;6.00;;;;;;;;;;5011073;28;20207;-64
2022/04/28 07:04:37;;;;;;;6.93;6.27;;;;;;;;;;5007533;28;20247;-63
2022/04/28 07:07:06;;;;;;;7.27;6.40;;;;;;;;;;5013068;28;20717;-64
2022/04/28 07:09:33;;;;;;;7.03;6.33;;;;;;;;;;5015366;28;20234;-65
2022/04/28 07:12:21;;;;;;;6.43;5.67;;;;;;;;;;5009541;28;20208;-64
2022/04/28 07:14:48;;;;;;;6.50;5.90;;;;;;;;;;5015202;28;20258;-63
2022/04/28 07:17:15;;;;;;;6.80;6.10;;;;;;;;;;5012765;28;20231;-63
2022/04/28 07:19:43;;;;;;;6.80;5.70;;;;;;;;;;5023872;28;20226;-64
2022/04/28 07:22:10;;;;;;;6.57;5.87;;;;;;;;;;5020856;28;20211;-65
2022/04/28 07:24:37;;;;;;;6.17;5.60;;;;;;;;;;5026074;28;20272;-64
2022/04/28 07:27:06;;;;;;;5.77;5.27;;;;;;;;;;5016684;28;20231;-64
2022/04/28 07:29:38;;;;;;;5.87;5.27;;;;;;;;;;5010777;28;20605;-64
2022/04/28 07:32:07;;;;;;;6.93;5.80;;;;;;;;;;5016090;28;20602;-63
2022/04/28 07:34:36;;;;;;;6.07;5.47;;;;;;;;;;5017646;28;20217;-64
2022/04/28 07:37:04;;;;;;;6.57;5.60;;;;;;;;;;5023776;28;20230;-64
2022/04/28 07:39:32;;;;;;;6.90;5.23;;;;;;;;;;5014392;28;20223;-63
2022/04/28 07:41:59;;;;;;;7.10;5.33;;;;;;;;;;5020816;28;20202;-65
2022/04/28 07:44:26;;;;;;;5.03;4.53;;;;;;;;;;5030252;28;20203;-64
2022/04/28 07:46:56;;;;;;;5.77;5.27;;;;;;;;;;5011074;28;20231;-64
2022/04/28 07:49:24;;;;;;;6.30;5.70;;;;;;;;;;5018006;28;20202;-63
2022/04/28 07:51:51;;;;;;;6.63;5.23;;;;;;;;;;5022852;28;20590;-64
2022/04/28 07:54:19;;;;;;;5.93;5.33;;;;;;;;;;5017541;28;20206;-63
2022/04/28 07:56:46;;;;;;;6.07;5.47;;;;;;;;;;5021164;28;20270;-64
2022/04/28 07:59:15;;;;;;;5.83;5.30;;;;;;;;;;5014185;28;20770;-64
2022/04/28 08:01:50;;;;;;;6.00;5.40;;;;;;;;;;5014163;28;20592;-64
2022/04/28 08:04:18;;;;;;;6.07;5.47;;;;;;;;;;5008144;28;20286;-64
2022/04/28 08:06:46;;;;;;;7.13;6.43;;;;;;;;;;5014917;28;20226;-62
2022/04/28 08:09:13;;;;;;;8.73;5.73;;;;;;;;;;5012038;28;20210;-63
2022/04/28 08:11:42;;;;;;;6.60;5.33;;;;;;;;;;5016631;28;20258;-63
2022/04/28 08:14:09;;;;;;;6.20;5.10;;;;;;;;;;5026514;28;20210;-63
2022/04/28 08:16:37;;;;;;;7.47;5.73;;;;;;;;;;5015380;28;20234;-64
2022/04/28 08:19:05;;;;;;;5.70;5.10;;;;;;;;;;5019431;28;20223;-63
2022/04/28 08:21:33;;;;;;;5.87;4.90;;;;;;;;;;5020775;28;20215;-63
2022/04/28 08:24:00;;;;;;;6.03;5.43;;;;;;;;;;5019560;28;20203;-64
2022/04/28 08:26:27;;;;;;;7.07;5.37;;;;;;;;;;5017044;28;20285;-64
2022/04/28 08:28:55;;;;;;;6.03;5.37;;;;;;;;;;5013479;28;20217;-64
2022/04/28 08:31:23;;;;;;;5.97;5.17;;;;;;;;;;5018185;28;20294;-62
2022/04/28 08:33:50;;;;;;;5.33;4.83;;;;;;;;;;5019421;28;20282;-63
2022/04/28 08:36:17;;;;;;;5.70;5.20;;;;;;;;;;5026109;28;20637;-62
2022/04/28 08:38:45;;;;;;;7.17;5.03;;;;;;;;;;5018039;28;20306;-63
2022/04/28 08:41:13;;;;;;;5.30;4.80;;;;;;;;;;5020778;28;20207;-64
2022/04/28 08:43:41;;;;;;;5.33;4.83;;;;;;;;;;5017478;28;20215;-63
2022/04/28 08:48:56;;;;;;;6.70;4.53;;;;;;;;;;5025809;28;20668;-64
2022/04/28 08:51:25;;;;;;;4.97;4.47;;;;;;;;;;5022671;28;20227;-63
2022/04/28 08:53:53;;;;;;;5.17;4.50;;;;;;;;;;5020204;28;20203;-64
2022/04/28 08:56:21;;;;;;;5.17;4.43;;;;;;;;;;5013808;28;20257;-65
2022/04/28 08:58:49;;;;;;;6.07;4.90;;;;;;;;;;5017313;28;20202;-64
2022/04/28 09:01:16;;;;;;;6.50;4.57;;;;;;;;;;5012924;28;20210;-63
2022/04/28 09:03:43;;;;;;;5.73;5.23;;;;;;;;;;5019394;28;20207;-64
2022/04/28 09:06:34;;;;;;;4.87;4.37;;;;;;;;;;5020328;28;20223;-64
2022/04/28 09:09:04;;;;;;;4.60;3.90;;;;;;;;;;5019388;28;20329;-62
2022/04/28 09:11:37;;;;;;;4.40;3.90;;;;;;;;;;5008899;28;20210;-64
2022/04/28 09:14:11;;;;;;;5.10;4.60;;;;;;;;;;5022384;28;20211;-64
2022/04/28 09:16:38;;;;;;;5.53;4.40;;;;;;;;;;5022412;28;20237;-64
2022/04/28 09:19:06;;;;;;;5.63;4.13;;;;;;;;;;5017598;28;20441;-64
2022/04/28 09:21:34;;;;;;;5.60;4.50;;;;;;;;;;5013670;28;20215;-63
2022/04/28 09:24:02;;;;;;;4.30;3.90;;;;;;;;;;5017102;28;20215;-62
2022/04/28 09:26:35;;;;;;;4.37;3.97;;;;;;;;;;5021626;28;20296;-65
2022/04/28 09:29:03;;;;;;;4.90;4.20;;;;;;;;;;5020401;28;20577;-63
2022/04/28 09:31:33;;;;;;;5.43;4.20;;;;;;;;;;5013421;28;20654;-63
2022/04/28 09:34:21;;;;;;;4.60;4.03;;;;;;;;;;5017222;28;20203;-64
2022/04/28 09:36:50;;;;;;;4.53;4.13;;;;;;;;;;5022021;28;20227;-62
2022/04/28 09:44:56;;;;;;;4.40;3.97;;;;;;;;;;5018951;28;20607;-64
2022/04/28 09:47:24;;;;;;;4.33;3.80;;;;;;;;;;5019677;28;20234;-64
2022/04/28 09:49:53;;;;;;;3.77;3.47;;;;;;;;;;5019471;28;20266;-63
2022/04/28 09:52:21;;;;;;;4.43;3.90;;;;;;;;;;5015992;28;20270;-62
2022/04/28 09:54:50;;;;;;;4.30;4.00;;;;;;;;;;5021393;28;20207;-64
2022/04/28 09:57:20;;;;;;;4.63;4.13;;;;;;;;;;5026071;28;20241;-64
2022/04/28 09:59:48;;;;;;;4.23;3.80;;;;;;;;;;5015325;28;20605;-64
2022/04/28 10:02:20;;;;;;;4.30;3.90;;;;;;;;;;5013779;28;20210;-65
2022/04/28 10:04:48;;;;;;;4.70;4.30;;;;;;;;;;5022156;28;20700;-61
2022/04/28 10:07:16;;;;;;;4.27;3.97;;;;;;;;;;5016956;28;20229;-65
2022/04/28 10:09:45;;;;;;;4.70;4.30;;;;;;;;;;5023182;28;20580;-65
2022/04/28 10:12:13;;;;;;;5.30;4.03;;;;;;;;;;5024713;28;20242;-65
2022/04/28 10:14:41;;;;;;;4.72;4.25;;;;;;;;;;5022289;28;20548;-64
2022/04/28 10:17:11;;;;;;;4.28;3.88;;;;;;;;;;5020759;28;20787;-63
2022/04/28 10:19:41;;;;;;;5.00;4.50;;;;;;;;;;5016261;28;21203;-64
2022/04/28 10:22:11;;;;;;;5.20;4.47;;;;;;;;;;5018605;28;20394;-64
2022/04/28 10:33:10;;;;;;;4.53;4.20;;;;;;;;;;5021987;28;20693;-64
2022/04/28 10:36:04;;;;;;;5.00;4.50;;;;;;;;;;5017948;28;20659;-65
2022/04/28 10:38:35;;;;;;;4.93;4.43;;;;;;;;;;5008194;28;20913;-64
2022/04/28 10:41:04;;;;;;;5.32;4.70;;;;;;;;;;5011191;28;20226;-67
2022/04/28 10:43:34;;;;;;;4.95;4.45;;;;;;;;;;5009310;28;20347;-65
2022/04/28 10:46:22;;;;;;;4.10;3.78;;;;;;;;;;5019926;28;20231;-62
2022/04/28 10:48:54;;;;;;;4.78;4.38;;;;;;;;;;5001419;28;20265;-63
2022/04/28 10:51:30;;;;;;;4.47;4.05;;;;;;;;;;5008413;28;20635;-63
2022/04/28 10:54:14;;;;;;;4.10;3.70;;;;;;;;;;5020211;28;20211;-63
2022/04/28 10:56:46;;;;;;;7.00;4.95;;;;;;;;;;5008601;28;20223;-63
2022/04/28 10:59:32;;;;;;;5.70;4.72;;;;;;;;;;5008153;28;20253;-62
2022/04/28 11:02:09;;;;;;;4.70;4.30;;;;;;;;;;5011386;28;20203;-63
2022/04/28 11:04:38;;;;;;;5.40;4.90;;;;;;;;;;5015643;28;20199;-67
2022/04/28 11:07:09;;;;;;;4.85;4.38;;;;;;;;;;4996643;28;20369;-63
2022/04/28 11:09:38;;;;;;;4.82;4.43;;;;;;;;;;4997457;28;20218;-66
2022/04/28 11:12:18;;;;;;;6.13;4.85;;;;;;;;;;5008588;28;20211;-65
2022/04/28 11:14:45;;;;;;;4.85;4.45;;;;;;;;;;5002784;28;20269;-66
2022/04/28 11:17:13;;;;;;;5.20;4.70;;;;;;;;;;5005563;28;20231;-63
2022/04/28 11:19:41;;;;;;;4.90;4.40;;;;;;;;;;5004122;28;20209;-65
2022/04/28 11:22:11;;;;;;;6.15;4.47;;;;;;;;;;5009824;28;20254;-63
2022/04/28 11:24:42;;;;;;;5.18;4.78;;;;;;;;;;5017976;28;20217;-63
2022/04/28 11:27:19;;;;;;;7.20;5.22;;;;;;;;;;5016478;28;20235;-64
2022/04/28 11:29:51;;;;;;;5.13;4.63;;;;;;;;;;5015431;28;20281;-65
2022/04/28 11:32:25;;;;;;;4.85;4.28;;;;;;;;;;5005418;28;20603;-64
2022/04/28 11:34:53;;;;;;;4.80;4.40;;;;;;;;;;5025432;28;20292;-62
2022/04/28 11:37:25;;;;;;;4.93;4.53;;;;;;;;;;5022392;28;20254;-66
2022/04/28 11:39:53;;;;;;;5.20;4.70;;;;;;;;;;5016636;28;20244;-66
2022/04/28 11:42:41;;;;;;;5.28;4.85;;;;;;;;;;5030272;28;20233;-63
2022/04/28 11:45:09;;;;;;;5.35;4.85;;;;;;;;;;5017631;28;20210;-65
2022/04/28 11:47:45;;;;;;;4.95;4.50;;;;;;;;;;5015584;28;20211;-64
2022/04/28 11:50:23;;;;;;;4.80;4.40;;;;;;;;;;5024074;28;20274;-66
2022/04/28 11:52:58;;;;;;;4.60;4.20;;;;;;;;;;5016585;28;20214;-66
2022/04/28 11:55:28;;;;;;;5.38;4.88;;;;;;;;;;5018637;28;20210;-63
2022/04/28 11:57:56;;;;;;;5.03;4.53;;;;;;;;;;5017191;28;20547;-63
2022/04/28 12:00:25;;;;;;;5.05;4.60;;;;;;;;;;5021606;28;20578;-65
2022/04/28 12:02:54;;;;;;;8.70;4.88;;;;;;;;;;5016605;28;20203;-64
2022/04/28 12:05:23;;;;;;;4.40;4.00;;;;;;;;;;5020184;28;20261;-66
2022/04/28 12:07:51;;;;;;;5.22;4.72;;;;;;;;;;5019956;28;20211;-63
2022/04/28 12:16:08;;;;;;;4.80;4.40;;;;;;;;;;5014743;28;20234;-64
2022/04/28 12:21:35;;;;;;;5.93;5.28;;;;;;;;;;4984757;28;20238;-64
2022/04/28 12:24:10;;;;;;;5.15;4.72;;;;;;;;;;5014514;28;20217;-65
2022/04/28 12:26:39;;;;;;;6.00;4.88;;;;;;;;;;5014082;28;20222;-65
2022/04/28 12:29:08;;;;;;;4.97;4.57;;;;;;;;;;5015783;28;20203;-64
2022/04/28 12:31:36;;;;;;;4.95;4.55;;;;;;;;;;5015315;28;20202;-65
2022/04/28 12:34:22;;;;;;;5.65;5.10;;;;;;;;;;5006099;28;21628;-63
2022/04/28 12:36:58;;;;;;;5.80;5.30;;;;;;;;;;5010266;28;20258;-65
2022/04/28 12:39:31;;;;;;;5.38;4.88;;;;;;;;;;5013243;28;20198;-65
2022/04/28 12:41:59;;;;;;;5.60;5.10;;;;;;;;;;5014586;28;20613;-63
2022/04/28 12:44:27;;;;;;;5.18;4.55;;;;;;;;;;5010472;28;21467;-64
2022/04/28 12:47:04;;;;;;;5.65;5.15;;;;;;;;;;5008372;28;20309;-66
2022/04/28 12:49:44;;;;;;;5.65;5.15;;;;;;;;;;5019282;28;20265;-64
2022/04/28 12:52:25;;;;;;;5.07;4.68;;;;;;;;;;5011397;28;20211;-65
2022/04/28 12:55:01;;;;;;;5.22;4.80;;;;;;;;;;5015339;28;20246;-65
2022/04/28 12:57:32;;;;;;;5.32;4.82;;;;;;;;;;5014566;28;20314;-64
2022/04/28 13:00:06;;;;;;;6.70;5.45;;;;;;;;;;5013618;28;20217;-64
2022/04/28 13:02:34;;;;;;;5.55;5.05;;;;;;;;;;5012461;28;20215;-65
2022/04/28 13:05:09;;;;;;;5.50;5.00;;;;;;;;;;5018266;28;20578;-64
2022/04/28 13:07:56;;;;;;;5.57;5.00;;;;;;;;;;5019761;28;20210;-64
2022/04/28 13:10:24;;;;;;;5.75;4.60;;;;;;;;;;5019269;28;20210;-64
2022/04/28 13:12:52;;;;;;;6.60;4.85;;;;;;;;;;5016444;28;20203;-67
2022/04/28 13:15:20;;;;;;;4.53;4.13;;;;;;;;;;5011591;28;20219;-65
2022/04/28 13:17:47;;;;;;;5.10;4.60;;;;;;;;;;5004447;28;20199;-65
2022/04/28 13:20:15;;;;;;;4.43;4.03;;;;;;;;;;5012786;28;20623;-64
2022/04/28 13:22:43;;;;;;;5.10;4.70;;;;;;;;;;5026510;28;20611;-64
2022/04/28 13:25:12;;;;;;;5.70;5.10;;;;;;;;;;5017290;28;20669;-65
2022/04/28 13:27:39;;;;;;;4.95;4.55;;;;;;;;;;5014146;28;20265;-65
2022/04/28 13:30:07;;;;;;;6.07;4.70;;;;;;;;;;5014514;28;20752;-66
2022/04/28 13:32:36;;;;;;;5.78;4.50;;;;;;;;;;5017853;28;20209;-64
2022/04/28 13:35:04;;;;;;;5.13;4.50;;;;;;;;;;5007682;28;20226;-67
2022/04/28 13:37:31;;;;;;;6.13;4.40;;;;;;;;;;5027452;28;21208;-65
2022/04/28 13:39:58;;;;;;;5.22;4.70;;;;;;;;;;5014674;28;20203;-64
2022/04/28 13:42:27;;;;;;;4.70;4.30;;;;;;;;;;5014342;28;20203;-63
2022/04/28 13:44:54;;;;;;;5.25;4.75;;;;;;;;;;5009774;28;20258;-64
2022/04/28 13:47:21;;;;;;;5.65;5.10;;;;;;;;;;5005625;28;20230;-65
2022/04/28 13:49:49;;;;;;;6.15;4.68;;;;;;;;;;5012158;28;20308;-64
2022/04/28 13:52:16;;;;;;;6.00;5.40;;;;;;;;;;5021536;28;20779;-65
2022/04/28 13:54:44;;;;;;;5.22;4.65;;;;;;;;;;5013508;28;20203;-64
2022/04/28 13:57:13;;;;;;;5.18;4.78;;;;;;;;;;5013167;28;20247;-63
2022/04/28 13:59:41;;;;;;;4.97;4.25;;;;;;;;;;5011398;28;20210;-62
2022/04/28 14:02:08;;;;;;;5.13;4.65;;;;;;;;;;5014447;28;20679;-63
2022/04/28 14:04:41;;;;;;;6.30;5.30;;;;;;;;;;5012947;28;20215;-66
2022/04/28 14:07:09;;;;;;;5.45;4.95;;;;;;;;;;5010167;28;20240;-63
2022/04/28 14:09:36;;;;;;;6.95;5.28;;;;;;;;;;5008551;28;20217;-63
2022/04/28 14:12:03;;;;;;;6.88;5.13;;;;;;;;;;5015148;28;20234;-65
2022/04/28 14:14:31;;;;;;;5.40;4.93;;;;;;;;;;5007580;28;20214;-63
2022/04/28 14:16:58;;;;;;;5.00;4.60;;;;;;;;;;5018083;28;20313;-65
2022/04/28 14:19:26;;;;;;;5.15;4.65;;;;;;;;;;5013620;28;20250;-63
2022/04/28 14:21:55;;;;;;;6.40;5.00;;;;;;;;;;5018247;28;20242;-64
2022/04/28 14:24:22;;;;;;;4.90;4.40;;;;;;;;;;5010368;28;20242;-64
2022/04/28 14:26:51;;;;;;;5.60;5.05;;;;;;;;;;5015572;28;20248;-64
2022/04/28 14:29:18;;;;;;;5.22;4.82;;;;;;;;;;5015301;28;20212;-64
2022/04/28 14:31:46;;;;;;;5.05;3.60;;;;;;;;;;5015236;28;20207;-64
2022/04/28 14:34:21;;;;;;;5.68;5.18;;;;;;;;;;5010172;28;20218;-64
2022/04/28 14:36:50;;;;;;;4.55;4.15;;;;;;;;;;5006818;28;20365;-65
2022/04/28 14:39:17;;;;;;;5.03;4.43;;;;;;;;;;4996053;28;20609;-64
2022/04/28 14:41:45;;;;;;;5.72;5.13;;;;;;;;;;5007159;28;20292;-64
2022/04/28 14:44:33;;;;;;;5.35;4.85;;;;;;;;;;5012161;28;20222;-64
2022/04/28 14:47:01;;;;;;;5.82;4.82;;;;;;;;;;5007397;28;20233;-64
2022/04/28 14:52:21;;;;;;;5.70;5.10;;;;;;;;;;5009413;28;20824;-64
2022/04/28 14:54:53;;;;;;;5.63;5.13;;;;;;;;;;5001241;28;20265;-64
2022/04/28 14:57:21;;;;;;;5.78;5.28;;;;;;;;;;5004132;28;23877;-64
2022/04/28 14:59:49;;;;;;;4.93;4.47;;;;;;;;;;5004861;28;20839;-62
2022/04/28 15:02:16;;;;;;;5.70;5.07;;;;;;;;;;5005419;28;20223;-64
2022/04/28 15:04:45;;;;;;;5.35;4.85;;;;;;;;;;5014857;28;20210;-63
2022/04/28 15:07:13;;;;;;;7.38;5.78;;;;;;;;;;5012295;28;20305;-64
2022/04/28 15:09:41;;;;;;;6.38;4.88;;;;;;;;;;5009546;28;20207;-64
2022/04/28 15:12:09;;;;;;;5.40;4.90;;;;;;;;;;5007737;28;20314;-64
2022/04/28 15:14:37;;;;;;;5.65;5.00;;;;;;;;;;5018321;28;20623;-65
2022/04/28 15:17:06;;;;;;;5.40;4.90;;;;;;;;;;5016119;28;20234;-64
2022/04/28 15:19:33;;;;;;;5.47;4.97;;;;;;;;;;5019156;28;20664;-65
2022/04/28 15:22:01;;;;;;;5.90;5.03;;;;;;;;;;5007741;28;20567;-64
2022/04/28 15:24:29;;;;;;;5.25;4.75;;;;;;;;;;5012415;28;20211;-65
2022/04/28 15:26:56;;;;;;;6.63;4.85;;;;;;;;;;5024385;28;20219;-64
2022/04/28 15:29:24;;;;;;;6.03;5.43;;;;;;;;;;5012634;28;20603;-64
2022/04/28 15:31:51;;;;;;;6.13;5.60;;;;;;;;;;5011421;28;20254;-63
2022/04/28 15:34:20;;;;;;;5.97;4.75;;;;;;;;;;5015709;28;20795;-64